Northport, AL

6:37 PM CDT on October 01, 2014 (GMT -0500)
Tuscaloosa Municipal | Change Station
CLOSE
Current Station
Airport
Location: Tuscaloosa,
Elevation: 171 ft
Nearby Weather Stations

Elev 171 ft 33.22 °N, 87.61 °W | Updated -951 second ago

Clear
Clear
78 °F
Feels Like 78 °F
N
4
Wind Variable Wind from East

Today
High -- | Low -- °F
--% Chance of Precip.
Yesterday
High -- | Low -- °F
Precip. -- in
6:44 AM 6:34 PM
First Quarter, 52% visible
Pressure 29.87 in
Visibility 10.0 miles
Clouds Few 7500 ft
Dew Point 60 °F
Humidity 54%
Rainfall 0.00 in
Snow Depth Not available.
UV 0 out of 12
Pollen 5.80 out of 12
Ozone Good
PM2.5 Good
Flu Activity Not available.
METAR KTCL 302353Z 09003KT 10SM FEW075 26/16 A2987 RMK AO2 SLP113 T02560156 10311 20256 53004

More Conditions Fewer Conditions

Pressure 29.87 in
Visibility 10.0 miles
Clouds Few 7500 ft
Dew Point 60 °F
Humidity 54%
Rainfall 0.00 in
Snow Depth Not available.
UV 0 out of 12
Pollen 5.80 out of 12
Ozone Good
PM2.5 Good
Flu Activity Not available.
METAR KTCL 302353Z 09003KT 10SM FEW075 26/16 A2987 RMK AO2 SLP113 T02560156 10311 20256 53004

More Conditions Fewer Conditions

10-Day Weather Forecast

Almanac

Astronomy

Oct. 01, 2014 Rise Set
Actual Time 6:44 AM CDT 6:34 PM CDT
Civil Twilight 6:19 AM CDT 6:59 PM CDT
Nautical Twilight 5:51 AM CDT 7:28 PM CDT
Astronomical Twilight 5:22 AM CDT 7:57 PM CDT
Moon 1:32 PM CDT No Moon Set
Length of Visible Light 12h 39m
Length of Day
11h 50m
Tomorrow will be 2m 2s shorter.
First Quarter, 52% of the Moon is Illuminated
Today
First Quarter
Oct 8
Full
Oct 15
Last Quarter
Oct 23
New
Oct 30
First Quarter

Today's Extremes

State Highs State Lows

Community

WunderPhotos

Upload Photos

1,758,084 photos uploaded!

WunderBlogs® & News

By Dr. Jeff Masters
Director of Meteorology, Weather Underground
By Kari Strenfel
Meteorologist, Weather Underground
By Christopher C. Burt
Weather Historian, Weather Underground
October 1, 2014
October 1, 2014
October 1, 2014

Nearby

Air Quality

  Air Quality AQ Index Pollutant
Yesterday Good
PM10
Yesterday Good
OZONE
Current Good
PM2.5
Current Good
OZONE
Wednesday Moderate
PM2.5
Wednesday Good
OZONE
Thursday Moderate
PM2.5
Thursday Good
OZONE

Snow Depth

Station Depth Elevation
No new snow has been reported.

Earthquake Activity

City Distance Mag. Time & Date
No recent earthquake activity has been reported nearby.
Minimum magnitude displayed is 2.5.

Coastal Water Temperatures

Place Temperature
No Stations Reporting

Nearby Weather Stations